Time;durP1;ratioP1;P1;durP2;ratioP2;P2;SDS_P1;SDS_P2;PMS_P1;PMS_P2;Temp;Humidity;BMP_temperature;BMP_pressure;BME280_temperature;BME280_humidity;BME280_pressure;Samples;Min_cycle;Max_cycle;Signal;HPM_P1;HPM_P2
2023/02/10 00:01:16;;;;;;;111.65;34.45;;;;;;;;;;5071765;28;20685;-67
2023/02/10 00:03:43;;;;;;;105.28;31.63;;;;;;;;;;5071673;28;20224;-67
2023/02/10 00:06:11;;;;;;;109.10;32.92;;;;;;;;;;5071676;28;20211;-67
2023/02/10 00:08:38;;;;;;;106.95;33.88;;;;;;;;;;5071400;28;20205;-67
2023/02/10 00:11:09;;;;;;;107.50;29.60;;;;;;;;;;5071808;28;20212;-67
2023/02/10 00:13:36;;;;;;;112.32;30.73;;;;;;;;;;5071804;28;20239;-67
2023/02/10 00:16:03;;;;;;;112.82;31.38;;;;;;;;;;5071627;28;20605;-68
2023/02/10 00:18:31;;;;;;;111.97;32.72;;;;;;;;;;5071409;28;20204;-68
2023/02/10 00:21:06;;;;;;;107.10;30.52;;;;;;;;;;5071595;28;20224;-68
2023/02/10 00:23:33;;;;;;;108.30;32.50;;;;;;;;;;5071395;28;20219;-68
2023/02/10 00:26:03;;;;;;;110.93;33.40;;;;;;;;;;5071711;28;20208;-67
2023/02/10 00:28:31;;;;;;;111.93;31.45;;;;;;;;;;5071453;28;20201;-67
2023/02/10 00:30:58;;;;;;;110.05;31.98;;;;;;;;;;5071175;28;20209;-68
2023/02/10 00:33:26;;;;;;;106.35;32.60;;;;;;;;;;5071780;28;20213;-68
2023/02/10 00:35:53;;;;;;;108.97;31.33;;;;;;;;;;5071276;28;20256;-68
2023/02/10 00:38:20;;;;;;;115.20;33.28;;;;;;;;;;5071576;28;20202;-68
2023/02/10 00:40:47;;;;;;;104.82;29.35;;;;;;;;;;5071300;28;20205;-68
2023/02/10 00:43:14;;;;;;;103.20;29.83;;;;;;;;;;5071422;28;20862;-68
2023/02/10 00:45:42;;;;;;;100.80;29.27;;;;;;;;;;5071430;28;20208;-68
2023/02/10 00:48:09;;;;;;;104.55;30.45;;;;;;;;;;5071122;28;20217;-68
2023/02/10 00:50:36;;;;;;;106.90;29.65;;;;;;;;;;5071144;28;20602;-67
2023/02/10 00:53:04;;;;;;;105.95;29.55;;;;;;;;;;5071275;28;20205;-67
2023/02/10 00:55:31;;;;;;;110.32;30.25;;;;;;;;;;5071092;28;20233;-68
2023/02/10 00:57:58;;;;;;;113.43;35.05;;;;;;;;;;5071144;28;20201;-67
2023/02/10 01:00:25;;;;;;;103.80;29.00;;;;;;;;;;5070966;28;20201;-68
2023/02/10 01:02:53;;;;;;;106.03;31.35;;;;;;;;;;5071132;28;20207;-68
2023/02/10 01:05:20;;;;;;;117.15;31.67;;;;;;;;;;5073682;28;20221;-68
2023/02/10 01:07:47;;;;;;;103.55;29.85;;;;;;;;;;5075054;28;20208;-67
2023/02/10 01:10:15;;;;;;;111.88;32.80;;;;;;;;;;5074590;28;20588;-68
2023/02/10 01:12:42;;;;;;;105.75;31.35;;;;;;;;;;5074858;28;20211;-68
2023/02/10 01:15:09;;;;;;;118.18;33.67;;;;;;;;;;5074571;28;20233;-68
2023/02/10 01:17:36;;;;;;;120.78;33.58;;;;;;;;;;5074772;28;20217;-68
2023/02/10 01:20:06;;;;;;;114.85;34.15;;;;;;;;;;5074443;28;20295;-67
2023/02/10 01:22:33;;;;;;;108.78;32.45;;;;;;;;;;5074672;28;20577;-68
2023/02/10 01:25:00;;;;;;;113.53;33.45;;;;;;;;;;5074309;28;20236;-68
2023/02/10 01:27:27;;;;;;;108.72;32.25;;;;;;;;;;5074543;28;20677;-68
2023/02/10 01:29:54;;;;;;;112.97;33.40;;;;;;;;;;5074026;28;20319;-67
2023/02/10 01:32:21;;;;;;;107.80;32.83;;;;;;;;;;5074251;28;20212;-68
2023/02/10 01:34:48;;;;;;;112.25;32.22;;;;;;;;;;5074350;28;20701;-68
2023/02/10 01:37:17;;;;;;;114.75;33.17;;;;;;;;;;5074448;28;20201;-67
2023/02/10 01:39:44;;;;;;;116.30;33.60;;;;;;;;;;5073924;28;20209;-67
2023/02/10 01:42:14;;;;;;;116.28;32.50;;;;;;;;;;5074159;28;20205;-68
2023/02/10 01:45:14;;;;;;;111.35;32.88;;;;;;;;;;5073983;28;20222;-68
2023/02/10 01:47:41;;;;;;;98.47;29.35;;;;;;;;;;5012092;28;20217;-67
2023/02/10 01:50:09;;;;;;;102.53;30.20;;;;;;;;;;5011814;28;20203;-69
2023/02/10 01:52:37;;;;;;;105.80;31.17;;;;;;;;;;5011839;28;20213;-67
2023/02/10 01:55:06;;;;;;;110.65;31.80;;;;;;;;;;5011705;28;20231;-67
2023/02/10 01:57:34;;;;;;;105.82;32.45;;;;;;;;;;5011859;28;20219;-67
2023/02/10 02:00:02;;;;;;;104.07;29.65;;;;;;;;;;5011475;28;20231;-67
2023/02/10 02:02:29;;;;;;;109.93;31.13;;;;;;;;;;5011923;28;20211;-67
2023/02/10 02:05:01;;;;;;;106.55;28.60;;;;;;;;;;5011646;28;20229;-67
2023/02/10 02:07:29;;;;;;;103.60;30.42;;;;;;;;;;5011676;28;20207;-68
2023/02/10 02:09:58;;;;;;;105.03;27.80;;;;;;;;;;5011234;28;20203;-67
2023/02/10 02:12:29;;;;;;;102.60;28.05;;;;;;;;;;5011472;28;20218;-68
2023/02/10 02:14:59;;;;;;;103.05;27.40;;;;;;;;;;5011445;28;20230;-67
2023/02/10 02:17:30;;;;;;;104.60;32.30;;;;;;;;;;5011708;28;20584;-68
2023/02/10 02:23:04;;;;;;;109.40;31.42;;;;;;;;;;5073445;28;20347;-68
2023/02/10 02:25:39;;;;;;;106.70;31.40;;;;;;;;;;5073369;28;20229;-68
2023/02/10 02:28:18;;;;;;;102.32;30.17;;;;;;;;;;5073325;28;20220;-67
2023/02/10 02:30:55;;;;;;;104.75;31.10;;;;;;;;;;5073150;28;20208;-67
2023/02/10 02:33:25;;;;;;;99.50;27.35;;;;;;;;;;5073017;28;20292;-68
2023/02/10 02:35:55;;;;;;;99.95;28.75;;;;;;;;;;5072443;28;20229;-68
2023/02/10 02:38:22;;;;;;;101.18;29.15;;;;;;;;;;5073153;28;20205;-68
2023/02/10 02:40:51;;;;;;;107.72;29.88;;;;;;;;;;5072857;28;20201;-67
2023/02/10 02:43:18;;;;;;;95.97;28.23;;;;;;;;;;5073146;28;20209;-68
2023/02/10 02:45:49;;;;;;;105.55;30.17;;;;;;;;;;5072994;28;20212;-67
2023/02/10 02:48:21;;;;;;;103.43;30.25;;;;;;;;;;5072841;28;20253;-67
2023/02/10 02:50:53;;;;;;;103.03;28.40;;;;;;;;;;5073098;28;20215;-68
2023/02/10 02:53:24;;;;;;;106.35;29.38;;;;;;;;;;5072823;28;20209;-67
2023/02/10 02:56:00;;;;;;;102.22;28.00;;;;;;;;;;5072572;28;20235;-67
2023/02/10 02:58:31;;;;;;;103.63;28.48;;;;;;;;;;5072691;28;20209;-67
2023/02/10 03:01:04;;;;;;;104.72;31.05;;;;;;;;;;5072772;28;20215;-68
2023/02/10 03:03:33;;;;;;;106.10;28.70;;;;;;;;;;5072841;28;20201;-67
2023/02/10 03:06:01;;;;;;;106.55;30.13;;;;;;;;;;5072525;28;20198;-68
2023/02/10 03:08:28;;;;;;;106.55;27.67;;;;;;;;;;5072442;28;20581;-67
2023/02/10 03:10:56;;;;;;;105.85;28.55;;;;;;;;;;5072365;28;20688;-68
2023/02/10 03:13:23;;;;;;;102.18;27.95;;;;;;;;;;5072189;28;20673;-68
2023/02/10 03:15:50;;;;;;;99.38;27.73;;;;;;;;;;5072579;28;20235;-68
2023/02/10 03:18:17;;;;;;;97.25;25.65;;;;;;;;;;5072311;28;20651;-68
2023/02/10 03:20:44;;;;;;;100.75;26.52;;;;;;;;;;5072268;28;20201;-67
2023/02/10 03:23:13;;;;;;;102.78;30.30;;;;;;;;;;5072292;28;20211;-68
2023/02/10 03:25:40;;;;;;;101.93;28.55;;;;;;;;;;5072267;28;20225;-68
2023/02/10 03:28:07;;;;;;;102.30;29.30;;;;;;;;;;5072066;28;20211;-67
2023/02/10 03:30:34;;;;;;;101.57;31.92;;;;;;;;;;5072027;28;20229;-68
2023/02/10 03:33:01;;;;;;;100.35;26.80;;;;;;;;;;5072436;28;20259;-67
2023/02/10 03:35:28;;;;;;;97.60;28.05;;;;;;;;;;5071946;28;20221;-67
2023/02/10 03:37:55;;;;;;;106.60;29.25;;;;;;;;;;5072296;28;20209;-67
2023/02/10 03:40:24;;;;;;;101.40;26.40;;;;;;;;;;5071756;28;20205;-67
2023/02/10 03:42:51;;;;;;;96.53;25.77;;;;;;;;;;5071903;28;20209;-67
2023/02/10 03:45:18;;;;;;;95.70;25.35;;;;;;;;;;5072088;28;20318;-68
2023/02/10 03:47:45;;;;;;;104.20;27.20;;;;;;;;;;5072429;28;20287;-67
2023/02/10 03:50:12;;;;;;;99.60;25.73;;;;;;;;;;5071648;28;20212;-68
2023/02/10 03:52:39;;;;;;;102.40;24.83;;;;;;;;;;5071794;28;20216;-67
2023/02/10 03:55:07;;;;;;;95.00;25.67;;;;;;;;;;5071741;28;20231;-67
2023/02/10 03:57:35;;;;;;;99.45;25.88;;;;;;;;;;5072236;28;20221;-67
2023/02/10 04:00:02;;;;;;;94.90;24.25;;;;;;;;;;5071348;28;20216;-67
2023/02/10 04:02:29;;;;;;;98.97;25.00;;;;;;;;;;5071915;28;20209;-68
2023/02/10 04:04:57;;;;;;;99.88;26.13;;;;;;;;;;5071654;28;20227;-68
2023/02/10 04:07:24;;;;;;;96.70;26.23;;;;;;;;;;5071746;28;20198;-67
2023/02/10 04:09:51;;;;;;;97.53;27.33;;;;;;;;;;5071334;28;20704;-67
2023/02/10 04:12:18;;;;;;;101.35;26.88;;;;;;;;;;5071817;28;20205;-68
2023/02/10 04:14:46;;;;;;;103.55;26.92;;;;;;;;;;5071631;28;20749;-67
2023/02/10 04:17:13;;;;;;;104.10;25.17;;;;;;;;;;5071695;28;20232;-68
2023/02/10 04:19:40;;;;;;;94.60;24.65;;;;;;;;;;5071335;28;20209;-68
2023/02/10 04:22:08;;;;;;;104.05;25.80;;;;;;;;;;5071749;28;20205;-68
2023/02/10 04:24:35;;;;;;;96.65;24.73;;;;;;;;;;5071534;28;20233;-67
2023/02/10 04:27:02;;;;;;;102.47;26.80;;;;;;;;;;5071547;28;20219;-67
2023/02/10 04:29:29;;;;;;;92.28;25.40;;;;;;;;;;5071078;28;20216;-67
2023/02/10 04:31:58;;;;;;;96.07;24.27;;;;;;;;;;5071405;28;20212;-67
2023/02/10 04:34:25;;;;;;;101.88;26.77;;;;;;;;;;5071517;28;20229;-67
2023/02/10 04:36:52;;;;;;;99.82;24.85;;;;;;;;;;5071378;28;20224;-68
2023/02/10 04:39:19;;;;;;;97.60;27.00;;;;;;;;;;5072229;28;20209;-68
2023/02/10 04:41:46;;;;;;;100.63;24.70;;;;;;;;;;5075503;28;20205;-67
2023/02/10 04:44:13;;;;;;;101.55;25.60;;;;;;;;;;5075396;28;20225;-67
2023/02/10 04:46:40;;;;;;;100.65;27.63;;;;;;;;;;5075257;28;20205;-68
2023/02/10 04:49:09;;;;;;;102.82;27.27;;;;;;;;;;5074802;28;20580;-68
2023/02/10 04:51:36;;;;;;;92.80;25.23;;;;;;;;;;5075066;28;20212;-68
2023/02/10 04:54:03;;;;;;;96.45;24.05;;;;;;;;;;5075079;28;20235;-68
2023/02/10 04:56:30;;;;;;;94.13;25.08;;;;;;;;;;5074987;28;20259;-67
2023/02/10 04:58:57;;;;;;;98.07;24.40;;;;;;;;;;5074846;28;20584;-67
2023/02/10 05:01:24;;;;;;;96.90;24.13;;;;;;;;;;5075011;28;20350;-68
2023/02/10 05:03:51;;;;;;;106.43;28.65;;;;;;;;;;5074721;28;20236;-67
2023/02/10 05:06:20;;;;;;;95.93;24.23;;;;;;;;;;5075086;28;20227;-68
2023/02/10 05:08:49;;;;;;;100.07;27.70;;;;;;;;;;5074394;28;20687;-68
2023/02/10 05:11:16;;;;;;;110.32;28.65;;;;;;;;;;5074735;28;20301;-67
2023/02/10 05:13:44;;;;;;;97.35;28.23;;;;;;;;;;5074869;28;20227;-68
2023/02/10 05:16:12;;;;;;;99.03;26.27;;;;;;;;;;5074649;28;20221;-68
2023/02/10 05:18:39;;;;;;;102.50;28.13;;;;;;;;;;5074470;28;20211;-68
2023/02/10 05:21:07;;;;;;;100.35;27.25;;;;;;;;;;5074539;28;20677;-68
2023/02/10 05:23:36;;;;;;;103.45;28.10;;;;;;;;;;5074946;28;20217;-68
2023/02/10 05:26:03;;;;;;;103.57;26.42;;;;;;;;;;5074616;28;20205;-68
2023/02/10 05:28:30;;;;;;;100.18;27.80;;;;;;;;;;5074224;28;20666;-68
2023/02/10 05:30:57;;;;;;;108.43;29.17;;;;;;;;;;5074314;28;20202;-68
2023/02/10 05:33:24;;;;;;;103.47;26.60;;;;;;;;;;5074200;28;20209;-68
2023/02/10 05:35:51;;;;;;;99.28;25.40;;;;;;;;;;5074416;28;20207;-68
2023/02/10 05:38:18;;;;;;;104.50;27.10;;;;;;;;;;5074313;28;20213;-68
2023/02/10 05:40:47;;;;;;;103.07;27.38;;;;;;;;;;5074012;28;20205;-68
2023/02/10 05:43:14;;;;;;;107.03;25.85;;;;;;;;;;5074302;28;20211;-68
2023/02/10 05:45:41;;;;;;;94.13;25.17;;;;;;;;;;5074016;28;20229;-68
2023/02/10 05:48:08;;;;;;;94.82;25.23;;;;;;;;;;5074172;28;20205;-67
2023/02/10 05:50:36;;;;;;;100.90;25.58;;;;;;;;;;5073036;28;20209;-68
2023/02/10 05:53:03;;;;;;;100.43;28.55;;;;;;;;;;5073831;28;20692;-68
2023/02/10 05:55:30;;;;;;;103.18;27.77;;;;;;;;;;5073967;28;20232;-68
2023/02/10 05:57:58;;;;;;;102.10;26.08;;;;;;;;;;5073738;28;20228;-68
2023/02/10 06:00:25;;;;;;;99.07;25.25;;;;;;;;;;5073655;28;20213;-68
2023/02/10 06:02:53;;;;;;;93.97;24.52;;;;;;;;;;5074099;28;20737;-68
2023/02/10 06:05:20;;;;;;;97.63;28.17;;;;;;;;;;5073945;28;20240;-68
2023/02/10 06:07:47;;;;;;;109.47;28.48;;;;;;;;;;5074079;28;20205;-68
2023/02/10 06:10:14;;;;;;;104.30;27.50;;;;;;;;;;5073425;28;20212;-68
2023/02/10 06:12:41;;;;;;;101.95;26.35;;;;;;;;;;5073626;28;20204;-67
2023/02/10 06:15:10;;;;;;;100.30;27.85;;;;;;;;;;5073824;28;20604;-68
2023/02/10 06:17:38;;;;;;;97.82;25.70;;;;;;;;;;5073825;28;20225;-68
2023/02/10 06:20:05;;;;;;;96.47;26.10;;;;;;;;;;5073284;28;20219;-68
2023/02/10 06:22:33;;;;;;;100.03;25.25;;;;;;;;;;5073668;28;20201;-68
2023/02/10 06:25:00;;;;;;;100.53;28.13;;;;;;;;;;5073037;28;20242;-68
2023/02/10 06:27:27;;;;;;;100.07;26.48;;;;;;;;;;5073808;28;20223;-68
2023/02/10 06:29:54;;;;;;;100.78;25.92;;;;;;;;;;5073184;28;20205;-68
2023/02/10 06:32:22;;;;;;;103.70;28.13;;;;;;;;;;5073277;28;20662;-68
2023/02/10 06:34:49;;;;;;;103.40;29.60;;;;;;;;;;5073078;28;20225;-68
2023/02/10 06:37:16;;;;;;;101.60;28.45;;;;;;;;;;5073098;28;20705;-68
2023/02/10 06:39:44;;;;;;;96.15;27.55;;;;;;;;;;5072626;28;20209;-67
2023/02/10 06:42:11;;;;;;;107.25;31.30;;;;;;;;;;5073208;28;20209;-68
2023/02/10 06:44:38;;;;;;;116.53;31.23;;;;;;;;;;5073134;28;20221;-67
2023/02/10 06:47:05;;;;;;;117.20;37.53;;;;;;;;;;5072832;28;20205;-68
2023/02/10 06:49:33;;;;;;;135.02;38.10;;;;;;;;;;5072579;28;20211;-68
2023/02/10 06:52:00;;;;;;;108.35;30.25;;;;;;;;;;5072876;28;20681;-68
2023/02/10 06:54:27;;;;;;;108.15;30.00;;;;;;;;;;5072827;28;20227;-68
2023/02/10 06:56:55;;;;;;;106.47;29.50;;;;;;;;;;5072755;28;20232;-68
2023/02/10 06:59:22;;;;;;;100.38;26.30;;;;;;;;;;5072304;28;20205;-68
2023/02/10 07:01:49;;;;;;;104.95;28.52;;;;;;;;;;5072310;28;20202;-68
2023/02/10 07:04:16;;;;;;;103.55;29.08;;;;;;;;;;5072983;28;20221;-68
2023/02/10 07:06:45;;;;;;;110.93;28.13;;;;;;;;;;5072419;28;20292;-68
2023/02/10 07:09:12;;;;;;;102.32;26.88;;;;;;;;;;5072129;28;20673;-68
2023/02/10 07:11:39;;;;;;;102.40;27.33;;;;;;;;;;5072578;28;20204;-68
2023/02/10 07:14:06;;;;;;;106.30;28.55;;;;;;;;;;5072572;28;20232;-68
2023/02/10 07:16:33;;;;;;;100.65;26.65;;;;;;;;;;5072211;28;20674;-68
2023/02/10 07:19:00;;;;;;;101.32;27.85;;;;;;;;;;5069634;28;20201;-68
2023/02/10 07:21:28;;;;;;;103.00;27.52;;;;;;;;;;5071706;28;20201;-68
2023/02/10 07:23:56;;;;;;;112.15;26.90;;;;;;;;;;5071691;28;20237;-68
2023/02/10 07:26:23;;;;;;;102.65;27.20;;;;;;;;;;5072356;28;20558;-68
2023/02/10 07:28:50;;;;;;;112.00;29.13;;;;;;;;;;5071954;28;20205;-68
2023/02/10 07:31:17;;;;;;;103.22;28.40;;;;;;;;;;5071974;28;20205;-68
2023/02/10 07:33:45;;;;;;;110.72;28.63;;;;;;;;;;5071973;28;20597;-68
2023/02/10 07:36:12;;;;;;;104.53;29.30;;;;;;;;;;5072297;28;20227;-68
2023/02/10 07:38:39;;;;;;;101.05;27.48;;;;;;;;;;5071727;28;20243;-68
2023/02/10 07:41:08;;;;;;;114.22;28.30;;;;;;;;;;5071984;28;20682;-68
2023/02/10 07:43:35;;;;;;;100.15;28.33;;;;;;;;;;5072148;28;20205;-68
2023/02/10 07:46:02;;;;;;;107.80;31.90;;;;;;;;;;5071965;28;20296;-68
2023/02/10 07:48:30;;;;;;;107.97;30.30;;;;;;;;;;5071628;28;20692;-68
2023/02/10 07:50:57;;;;;;;107.85;31.08;;;;;;;;;;5072069;28;20202;-68
2023/02/10 07:53:24;;;;;;;103.25;29.90;;;;;;;;;;5071933;28;20201;-68
2023/02/10 07:55:51;;;;;;;104.30;29.13;;;;;;;;;;5072165;28;20210;-68
2023/02/10 07:58:19;;;;;;;104.70;29.20;;;;;;;;;;5071695;28;20225;-68
2023/02/10 08:00:46;;;;;;;101.40;28.75;;;;;;;;;;5071544;28;20577;-68
2023/02/10 08:03:14;;;;;;;103.75;30.58;;;;;;;;;;5071789;28;20208;-68
2023/02/10 08:05:42;;;;;;;104.95;30.05;;;;;;;;;;5071905;28;20228;-68
2023/02/10 08:08:09;;;;;;;104.78;32.38;;;;;;;;;;5071558;28;20205;-68
2023/02/10 08:10:38;;;;;;;113.32;31.55;;;;;;;;;;5071520;28;20204;-68
2023/02/10 08:13:05;;;;;;;106.70;28.65;;;;;;;;;;5071681;28;20205;-68
2023/02/10 08:15:33;;;;;;;106.32;29.42;;;;;;;;;;5074496;28;20225;-68
2023/02/10 08:18:01;;;;;;;105.15;30.25;;;;;;;;;;5075810;28;20225;-68
2023/02/10 08:20:28;;;;;;;106.88;29.95;;;;;;;;;;5075586;28;20205;-68
2023/02/10 08:22:55;;;;;;;107.53;31.23;;;;;;;;;;5075529;28;20205;-67
2023/02/10 08:25:23;;;;;;;108.03;30.17;;;;;;;;;;5075827;28;20315;-68
2023/02/10 08:27:50;;;;;;;108.03;32.33;;;;;;;;;;5075614;28;20232;-68
2023/02/10 08:30:17;;;;;;;106.07;30.55;;;;;;;;;;5074847;28;20643;-68
2023/02/10 08:32:46;;;;;;;102.50;30.50;;;;;;;;;;5075694;28;20205;-68
2023/02/10 08:35:13;;;;;;;99.85;30.35;;;;;;;;;;5075790;28;20227;-68
2023/02/10 08:37:40;;;;;;;102.00;30.77;;;;;;;;;;5075517;28;20227;-68
2023/02/10 08:40:08;;;;;;;99.22;30.67;;;;;;;;;;5075169;28;20212;-68
2023/02/10 08:42:35;;;;;;;106.63;33.55;;;;;;;;;;5075168;28;20209;-67
2023/02/10 08:45:02;;;;;;;102.38;29.13;;;;;;;;;;5075385;28;20228;-68
2023/02/10 08:47:29;;;;;;;110.78;32.05;;;;;;;;;;5075330;28;20209;-68
2023/02/10 08:49:58;;;;;;;108.22;31.08;;;;;;;;;;5074989;28;20681;-69
2023/02/10 08:52:25;;;;;;;110.40;31.80;;;;;;;;;;5075277;28;20212;-68
2023/02/10 08:54:52;;;;;;;109.13;34.95;;;;;;;;;;5075115;28;20229;-67
2023/02/10 08:57:19;;;;;;;99.75;29.88;;;;;;;;;;5074872;28;20712;-68
2023/02/10 08:59:46;;;;;;;101.47;32.00;;;;;;;;;;5074830;28;20209;-68
2023/02/10 09:02:14;;;;;;;111.30;36.30;;;;;;;;;;5075142;28;20201;-68
2023/02/10 09:04:41;;;;;;;105.97;29.35;;;;;;;;;;5074991;28;20250;-68
2023/02/10 09:07:11;;;;;;;104.50;30.65;;;;;;;;;;5075608;28;20590;-68
2023/02/10 09:09:39;;;;;;;99.57;31.33;;;;;;;;;;5074321;28;20244;-68
2023/02/10 09:12:06;;;;;;;103.95;31.13;;;;;;;;;;5074916;28;20582;-68
2023/02/10 09:14:34;;;;;;;105.00;29.45;;;;;;;;;;5074847;28;20286;-68
2023/02/10 09:17:01;;;;;;;103.15;31.50;;;;;;;;;;5074491;28;20704;-68
2023/02/10 09:19:28;;;;;;;104.82;31.42;;;;;;;;;;5074448;28;20205;-68
2023/02/10 09:21:56;;;;;;;102.10;30.50;;;;;;;;;;5074549;28;20207;-68
2023/02/10 09:24:24;;;;;;;99.10;29.67;;;;;;;;;;5074283;28;20278;-68
2023/02/10 09:26:51;;;;;;;97.13;28.80;;;;;;;;;;5074482;28;20201;-68
2023/02/10 09:29:19;;;;;;;93.45;28.15;;;;;;;;;;5074052;28;20202;-68
2023/02/10 09:31:46;;;;;;;100.93;29.83;;;;;;;;;;5074499;28;20597;-68
2023/02/10 09:34:13;;;;;;;96.82;28.63;;;;;;;;;;5074321;28;20225;-68
2023/02/10 09:36:40;;;;;;;101.80;30.60;;;;;;;;;;5074404;28;20240;-68
2023/02/10 09:39:07;;;;;;;95.72;26.33;;;;;;;;;;5073720;28;20720;-68
2023/02/10 09:41:52;;;;;;;103.10;29.20;;;;;;;;;;5074275;28;20209;-68
2023/02/10 09:44:21;;;;;;;97.68;28.80;;;;;;;;;;5074178;28;20230;-68
2023/02/10 09:46:54;;;;;;;98.32;28.30;;;;;;;;;;5074083;28;20496;-68
2023/02/10 09:49:28;;;;;;;95.13;27.38;;;;;;;;;;5073675;28;20261;-68
2023/02/10 09:52:01;;;;;;;98.65;28.27;;;;;;;;;;5074154;28;20206;-68
2023/02/10 09:54:31;;;;;;;99.18;27.67;;;;;;;;;;5074114;28;20598;-68
2023/02/10 09:57:02;;;;;;;99.43;28.30;;;;;;;;;;5074073;28;20207;-68
2023/02/10 09:59:29;;;;;;;98.10;28.40;;;;;;;;;;5073489;28;20500;-66
2023/02/10 10:01:59;;;;;;;88.65;26.15;;;;;;;;;;5073657;28;20208;-66
2023/02/10 10:04:28;;;;;;;91.95;26.92;;;;;;;;;;5073842;28;20298;-67
2023/02/10 10:06:57;;;;;;;93.78;26.77;;;;;;;;;;5073909;28;20201;-67
2023/02/10 10:09:28;;;;;;;89.78;24.65;;;;;;;;;;5073320;28;20204;-67
2023/02/10 10:11:55;;;;;;;92.32;23.65;;;;;;;;;;5073560;28;20216;-68
2023/02/10 10:14:26;;;;;;;86.60;24.63;;;;;;;;;;5073549;28;20231;-68
2023/02/10 10:17:05;;;;;;;87.23;25.13;;;;;;;;;;5073746;28;20227;-68
2023/02/10 10:19:42;;;;;;;84.10;23.80;;;;;;;;;;5072934;28;20478;-68
2023/02/10 10:22:18;;;;;;;88.20;25.20;;;;;;;;;;5073378;28;20458;-67
2023/02/10 10:24:53;;;;;;;85.77;23.37;;;;;;;;;;5073108;28;20479;-68
2023/02/10 10:27:26;;;;;;;86.90;22.30;;;;;;;;;;5073391;28;20455;-68
2023/02/10 10:29:55;;;;;;;84.70;21.93;;;;;;;;;;5073049;28;20443;-68
2023/02/10 10:32:28;;;;;;;85.10;23.93;;;;;;;;;;5073322;28;20473;-68
2023/02/10 10:34:57;;;;;;;84.53;22.50;;;;;;;;;;5073161;28;20462;-69
2023/02/10 10:37:25;;;;;;;84.60;23.23;;;;;;;;;;5072168;28;20451;-68
2023/02/10 10:39:54;;;;;;;83.03;23.07;;;;;;;;;;5070409;28;20447;-67
2023/02/10 10:42:26;;;;;;;84.77;24.10;;;;;;;;;;5071947;28;20543;-68
2023/02/10 10:44:56;;;;;;;86.03;25.20;;;;;;;;;;5072067;28;20464;-68
2023/02/10 10:47:30;;;;;;;85.17;23.60;;;;;;;;;;5072318;28;20459;-68
2023/02/10 10:49:58;;;;;;;84.17;22.30;;;;;;;;;;5072354;28;20455;-69
2023/02/10 10:52:31;;;;;;;83.83;22.37;;;;;;;;;;5072712;28;20447;-69
2023/02/10 10:54:58;;;;;;;85.90;24.17;;;;;;;;;;5072848;28;20844;-69
2023/02/10 10:57:26;;;;;;;87.03;24.07;;;;;;;;;;5072554;28;20451;-69
2023/02/10 10:59:57;;;;;;;86.67;24.40;;;;;;;;;;5072197;28;20448;-69
2023/02/10 11:02:24;;;;;;;85.00;23.13;;;;;;;;;;5072785;28;20446;-70
2023/02/10 11:05:01;;;;;;;80.67;22.33;;;;;;;;;;5072558;28;20464;-67
2023/02/10 11:07:29;;;;;;;84.23;23.70;;;;;;;;;;5072628;28;20967;-67
2023/02/10 11:09:58;;;;;;;82.20;23.10;;;;;;;;;;5072281;28;20458;-70
2023/02/10 11:12:28;;;;;;;88.47;25.40;;;;;;;;;;5072454;28;20501;-69
2023/02/10 11:14:58;;;;;;;80.70;22.90;;;;;;;;;;5072422;28;20471;-67
2023/02/10 11:17:28;;;;;;;83.17;22.97;;;;;;;;;;5072409;28;20448;-67
2023/02/10 11:19:57;;;;;;;82.37;23.60;;;;;;;;;;5071790;28;21015;-67
2023/02/10 11:22:24;;;;;;;83.20;23.37;;;;;;;;;;5072139;28;20447;-68
2023/02/10 11:24:52;;;;;;;83.67;22.73;;;;;;;;;;5072694;28;20479;-69
2023/02/10 11:27:19;;;;;;;85.73;23.03;;;;;;;;;;5072102;28;20504;-68
2023/02/10 11:29:49;;;;;;;82.73;23.07;;;;;;;;;;5071956;28;20444;-69
2023/02/10 11:32:22;;;;;;;81.50;21.57;;;;;;;;;;5072038;28;20455;-68
2023/02/10 11:34:51;;;;;;;83.03;23.55;;;;;;;;;;5071531;28;20434;-68
2023/02/10 11:37:21;;;;;;;84.40;23.50;;;;;;;;;;5071960;28;20442;-68
2023/02/10 11:39:49;;;;;;;79.30;23.90;;;;;;;;;;5071379;28;20225;-69
2023/02/10 11:42:20;;;;;;;79.77;22.43;;;;;;;;;;5071804;28;20455;-68
2023/02/10 11:44:53;;;;;;;80.57;22.57;;;;;;;;;;5072057;28;20479;-68
2023/02/10 11:47:22;;;;;;;79.30;20.17;;;;;;;;;;5071861;28;20443;-68
2023/02/10 11:49:50;;;;;;;78.87;19.73;;;;;;;;;;5071488;28;20435;-68
2023/02/10 11:52:18;;;;;;;81.10;20.63;;;;;;;;;;5071601;28;21017;-69
2023/02/10 11:54:46;;;;;;;78.07;20.27;;;;;;;;;;5071509;28;20980;-69
2023/02/10 12:00:21;;;;;;;76.43;20.53;;;;;;;;;;5028984;28;20650;-68
2023/02/10 12:02:56;;;;;;;78.90;19.63;;;;;;;;;;5062710;28;20435;-68
2023/02/10 12:05:27;;;;;;;76.13;20.13;;;;;;;;;;5071752;28;20493;-69
2023/02/10 12:08:00;;;;;;;80.40;21.00;;;;;;;;;;5071668;28;20439;-69
2023/02/10 12:10:31;;;;;;;79.17;22.00;;;;;;;;;;5071321;28;20443;-69
2023/02/10 12:13:02;;;;;;;80.07;20.53;;;;;;;;;;5071350;28;20439;-69
2023/02/10 12:15:33;;;;;;;78.60;20.53;;;;;;;;;;5071582;28;20828;-68
2023/02/10 12:18:12;;;;;;;77.93;20.40;;;;;;;;;;5071239;28;20823;-68
2023/02/10 12:20:44;;;;;;;77.43;21.30;;;;;;;;;;5071477;28;20451;-69
2023/02/10 12:23:30;;;;;;;76.57;20.90;;;;;;;;;;5071368;28;20448;-69
2023/02/10 12:26:04;;;;;;;78.60;20.17;;;;;;;;;;5071642;28;20449;-69
2023/02/10 12:28:37;;;;;;;74.97;18.90;;;;;;;;;;5071090;28;20450;-68
2023/02/10 12:31:08;;;;;;;76.40;20.37;;;;;;;;;;5071220;28;20439;-68
2023/02/10 12:33:42;;;;;;;83.43;24.50;;;;;;;;;;5071202;28;20473;-68
2023/02/10 12:36:12;;;;;;;77.43;21.27;;;;;;;;;;5071181;28;20439;-68
2023/02/10 12:38:47;;;;;;;82.13;25.40;;;;;;;;;;5070358;28;20478;-68
2023/02/10 12:41:17;;;;;;;76.97;20.33;;;;;;;;;;5070431;28;20450;-69
2023/02/10 12:43:56;;;;;;;79.17;22.20;;;;;;;;;;5071484;28;20469;-68
2023/02/10 12:46:26;;;;;;;79.10;20.53;;;;;;;;;;5070477;28;20958;-69
2023/02/10 12:49:06;;;;;;;74.90;20.50;;;;;;;;;;5071188;28;20458;-68
2023/02/10 12:51:40;;;;;;;77.30;19.83;;;;;;;;;;5071363;28;20443;-68
2023/02/10 12:54:11;;;;;;;76.10;20.87;;;;;;;;;;5070622;28;20467;-68
2023/02/10 12:56:40;;;;;;;79.20;20.30;;;;;;;;;;5070853;28;20451;-68
2023/02/10 12:59:13;;;;;;;76.50;20.17;;;;;;;;;;5070547;28;20458;-68
2023/02/10 13:01:42;;;;;;;77.47;21.50;;;;;;;;;;5074174;28;20465;-68
2023/02/10 13:04:15;;;;;;;75.53;20.20;;;;;;;;;;5074617;28;20471;-68
2023/02/10 13:06:44;;;;;;;78.73;22.40;;;;;;;;;;5075038;28;20770;-68
2023/02/10 13:09:14;;;;;;;74.07;20.63;;;;;;;;;;5074208;28;20487;-69
2023/02/10 13:11:43;;;;;;;77.50;21.93;;;;;;;;;;5074817;28;20454;-69
2023/02/10 13:14:14;;;;;;;76.90;21.93;;;;;;;;;;5074661;28;20474;-69
2023/02/10 13:16:41;;;;;;;76.80;19.80;;;;;;;;;;5074929;28;20451;-68
2023/02/10 13:19:13;;;;;;;75.23;20.90;;;;;;;;;;5074232;28;20466;-69
2023/02/10 13:21:45;;;;;;;75.17;21.80;;;;;;;;;;5074314;28;20800;-69
2023/02/10 13:24:15;;;;;;;73.50;20.10;;;;;;;;;;5074475;28;20893;-68
2023/02/10 13:26:55;;;;;;;79.70;22.40;;;;;;;;;;5074534;28;20459;-69
2023/02/10 13:29:25;;;;;;;77.00;20.80;;;;;;;;;;5073997;28;20483;-68
2023/02/10 13:31:57;;;;;;;78.03;21.60;;;;;;;;;;5074222;28;20530;-66
2023/02/10 13:34:26;;;;;;;78.43;21.20;;;;;;;;;;5073998;28;20471;-67
2023/02/10 13:36:56;;;;;;;76.20;22.03;;;;;;;;;;5074212;28;20547;-66
2023/02/10 13:39:25;;;;;;;77.50;21.77;;;;;;;;;;5073842;28;20444;-66
2023/02/10 13:42:07;;;;;;;85.63;23.60;;;;;;;;;;5073996;28;20952;-69
2023/02/10 13:44:40;;;;;;;78.00;22.20;;;;;;;;;;5073885;28;20477;-69
2023/02/10 13:47:14;;;;;;;79.67;23.67;;;;;;;;;;5074352;28;20456;-68
2023/02/10 13:49:51;;;;;;;76.57;22.30;;;;;;;;;;5073789;28;20494;-69
2023/02/10 13:52:20;;;;;;;75.87;22.37;;;;;;;;;;5074196;28;20462;-69
2023/02/10 13:54:54;;;;;;;80.17;23.63;;;;;;;;;;5073633;28;20463;-69
2023/02/10 13:57:25;;;;;;;77.20;23.03;;;;;;;;;;5073662;28;20967;-69
2023/02/10 13:59:53;;;;;;;79.77;22.67;;;;;;;;;;5073600;28;20451;-69
2023/02/10 14:02:22;;;;;;;75.17;21.73;;;;;;;;;;5073830;28;20819;-69
2023/02/10 14:04:50;;;;;;;82.80;23.73;;;;;;;;;;5073619;28;20520;-69
2023/02/10 14:07:34;;;;;;;77.97;22.00;;;;;;;;;;5073779;28;20501;-69
2023/02/10 14:10:06;;;;;;;74.83;22.03;;;;;;;;;;5073371;28;20823;-69
2023/02/10 14:12:36;;;;;;;76.97;21.00;;;;;;;;;;5072535;28;20459;-69
2023/02/10 14:15:22;;;;;;;75.97;22.03;;;;;;;;;;5073673;28;20467;-69
2023/02/10 14:17:57;;;;;;;76.20;20.07;;;;;;;;;;5073336;28;20451;-69
2023/02/10 14:20:27;;;;;;;78.50;21.57;;;;;;;;;;5073480;28;20439;-68
2023/02/10 14:22:58;;;;;;;76.37;21.33;;;;;;;;;;5073097;28;20948;-68
2023/02/10 14:25:28;;;;;;;76.97;20.70;;;;;;;;;;5073254;28;20464;-69
2023/02/10 14:27:56;;;;;;;78.30;22.77;;;;;;;;;;5073346;28;20451;-68